Aérodrome :
LOGIN :

S'inscrire | Disclaimer

   EN    FR    IT 

 










Légende :    VFR   VFR Marginal   IFR   IFR Intensif   IFR Très Intensif
Visi : 
Plafond : 
>= 8 km
>= 3000ft
5 à 8 km
1000 à 3000 ft
1500m à 5 km
500 à 1000 ft
800 à 1500m
200 à 500 ft
< 800m
< 200 ft
Symboles :   Orages  Brouillard  Fortes neiges  Fortes précipitations  Vent > 20 kt
SIGMETs :   Divers  Orages  Givrage  Turbulence  Onde Orograph.  Cendres Volcan.







- Altitude de l'aérodrome : 778 ft
- Code IATA : BRQ


LKTB - Brno-Turany

DERNIER METAR :
  • 240100Z 29008KT 9999 SCT046 13/08 Q1019 NOSIG

METARs EXPIRÉS :
  • 240030Z 30007KT CAVOK 13/08 Q1019 NOSIG
  • 240000Z 29006KT 9999 SCT032 13/08 Q1020 NOSIG
  • 232330Z 29006KT 260V320 9999 SCT027 13/08 Q1020 NOSIG
  • 232300Z 29007KT CAVOK 13/08 Q1020 NOSIG
  • 232230Z 29007KT CAVOK 13/08 Q1020 NOSIG

TAF TAF LKTB
Valide du 24 à 00h jusqu'au 25 à 06h UTC


232300Z 2400/2506 32008KT 9999 SCT040
TEMPO 2408/2421 30014KT -SHRA BKN035
PROB30
TEMPO 2410/2420 8000 SHRA SCT025TCU BKN030
Pas de NOTAMs connus pour ce terrain.



MET'MAP, la Météo Aéronautique d'un coup d'oeil ! - Copyright ORBIFLY Décembre 2007 - Disclaimer

ORBIFLY MET'MAP TEAM :

Programmation & Développement : Alexandra Zaïnal
Conception & Développement : Baudouin d'Aumeries
Co-Programmation & Développement : Marc-Olivier Méhu
Soutien technique & logistique : Manuel Goepfert

Contact : metmap@orbifly.com




SOURCES & CREDITS :

   NOAA